createdAt,value
2022-12-20T00:00:46.048Z,18.89
2022-12-20T00:01:46.194Z,18.87
2022-12-20T00:02:46.359Z,18.89
2022-12-20T00:03:46.356Z,18.89
2022-12-20T00:04:46.409Z,18.90
2022-12-20T00:05:46.506Z,18.90
2022-12-20T00:06:46.577Z,18.90
2022-12-20T00:07:46.651Z,18.91
2022-12-20T00:08:46.734Z,18.91
2022-12-20T00:09:46.801Z,18.89
2022-12-20T00:10:46.874Z,18.90
2022-12-20T00:11:46.941Z,18.91
2022-12-20T00:12:47.003Z,18.91
2022-12-20T00:13:47.120Z,18.89
2022-12-20T00:14:47.144Z,18.90
2022-12-20T00:15:47.203Z,18.90
2022-12-20T00:16:47.273Z,18.93
2022-12-20T00:17:47.483Z,18.96
2022-12-20T00:18:47.440Z,18.96
2022-12-20T00:19:47.500Z,18.93
2022-12-20T00:20:47.597Z,18.94
2022-12-20T00:21:47.682Z,18.93
2022-12-20T00:22:47.748Z,18.93
2022-12-20T00:23:47.831Z,18.91
2022-12-20T00:24:47.892Z,18.90
2022-12-20T00:25:47.957Z,18.90
2022-12-20T00:26:48.025Z,18.91
2022-12-20T00:27:48.097Z,18.93
2022-12-20T00:28:48.203Z,18.91
2022-12-20T00:29:48.264Z,18.90
2022-12-20T00:30:48.355Z,18.91
2022-12-20T00:31:48.602Z,18.91
2022-12-20T00:32:48.488Z,18.91
2022-12-20T00:33:48.581Z,18.93
2022-12-20T00:34:48.652Z,18.90
2022-12-20T00:35:48.717Z,18.90
2022-12-20T00:36:48.784Z,18.90
2022-12-20T00:37:48.843Z,18.91
2022-12-20T00:38:48.974Z,18.93
2022-12-20T00:39:49.035Z,18.90
2022-12-20T00:40:49.105Z,18.90
2022-12-20T00:41:49.174Z,18.93
2022-12-20T00:42:49.255Z,18.94
2022-12-20T00:43:49.337Z,18.93
2022-12-20T00:44:49.408Z,18.93
2022-12-20T00:45:49.479Z,18.94
2022-12-20T00:46:49.597Z,18.89
2022-12-20T00:47:49.635Z,18.89
2022-12-20T00:48:49.752Z,18.87
2022-12-20T00:49:49.834Z,18.87
2022-12-20T00:50:49.900Z,18.90
2022-12-20T00:51:49.954Z,18.93
2022-12-20T00:52:50.019Z,18.89
2022-12-20T00:53:50.117Z,18.89
2022-12-20T00:54:50.174Z,18.89
2022-12-20T00:55:50.229Z,18.93
2022-12-20T00:56:50.306Z,18.94
2022-12-20T00:57:50.362Z,18.91
2022-12-20T00:58:50.453Z,18.91
2022-12-20T00:59:50.484Z,18.90
2022-12-20T01:00:56.085Z,18.89
2022-12-20T01:01:50.821Z,18.89
2022-12-20T01:02:50.847Z,18.90
2022-12-20T01:03:50.929Z,18.87
2022-12-20T01:04:50.894Z,18.86
2022-12-20T01:05:50.996Z,18.86
2022-12-20T01:06:51.076Z,18.86
2022-12-20T01:07:51.135Z,18.84
2022-12-20T01:08:51.237Z,18.82
2022-12-20T01:09:51.318Z,18.83
2022-12-20T01:10:51.399Z,18.86
2022-12-20T01:11:51.476Z,18.86
2022-12-20T01:12:51.550Z,18.83
2022-12-20T01:13:51.670Z,18.86
2022-12-20T01:14:51.721Z,18.87
2022-12-20T01:15:51.791Z,18.86
2022-12-20T01:16:51.980Z,18.83
2022-12-20T01:17:51.961Z,18.84
2022-12-20T01:18:52.042Z,18.83
2022-12-20T01:19:52.115Z,18.83
2022-12-20T01:20:52.179Z,18.83
2022-12-20T01:21:52.248Z,18.84
2022-12-20T01:22:52.327Z,18.84
2022-12-20T01:23:52.432Z,18.86
2022-12-20T01:24:52.478Z,18.89
2022-12-20T01:25:52.546Z,18.86
2022-12-20T01:26:52.618Z,18.84
2022-12-20T01:27:52.708Z,18.87
2022-12-20T01:28:52.809Z,18.87
2022-12-20T01:29:52.867Z,18.89
2022-12-20T01:30:52.953Z,18.87
2022-12-20T01:31:53.042Z,18.86
2022-12-20T01:32:53.103Z,18.82
2022-12-20T01:33:53.193Z,18.78
2022-12-20T01:34:53.266Z,18.79
2022-12-20T01:35:53.335Z,18.79
2022-12-20T01:36:53.403Z,18.79
2022-12-20T01:37:53.474Z,18.84
2022-12-20T01:38:53.604Z,18.84
2022-12-20T01:39:53.628Z,18.87
2022-12-20T01:40:53.731Z,18.86
2022-12-20T01:41:53.796Z,18.86
2022-12-20T01:42:53.897Z,18.84
2022-12-20T01:43:53.979Z,18.84
2022-12-20T01:44:54.054Z,18.83
2022-12-20T01:45:54.158Z,18.79
2022-12-20T01:46:54.232Z,18.83
2022-12-20T01:47:54.291Z,18.83
2022-12-20T01:48:54.376Z,18.84
2022-12-20T01:49:54.445Z,18.82
2022-12-20T01:50:54.514Z,18.83
2022-12-20T01:51:54.572Z,18.86
2022-12-20T01:52:54.637Z,18.89
2022-12-20T01:53:54.749Z,18.84
2022-12-20T01:54:54.806Z,18.86
2022-12-20T01:55:54.930Z,18.84
2022-12-20T01:56:54.979Z,18.84
2022-12-20T01:57:55.050Z,18.83
2022-12-20T01:58:55.163Z,18.86
2022-12-20T01:59:55.214Z,18.90
2022-12-20T02:00:55.358Z,18.91
2022-12-20T02:01:55.688Z,18.90
2022-12-20T02:02:55.631Z,18.84
2022-12-20T02:03:55.583Z,18.84
2022-12-20T02:04:55.640Z,18.89
2022-12-20T02:05:55.709Z,18.90
2022-12-20T02:06:55.777Z,18.93
2022-12-20T02:07:55.851Z,18.93
2022-12-20T02:08:55.943Z,18.91
2022-12-20T02:09:56.006Z,18.90
2022-12-20T02:10:56.069Z,18.89
2022-12-20T02:11:56.140Z,18.89
2022-12-20T02:12:56.209Z,18.90
2022-12-20T02:13:56.310Z,18.93
2022-12-20T02:14:56.334Z,18.93
2022-12-20T02:15:56.402Z,18.93
2022-12-20T02:16:56.604Z,18.90
2022-12-20T02:17:56.584Z,18.89
2022-12-20T02:18:56.684Z,18.87
2022-12-20T02:19:56.743Z,18.86
2022-12-20T02:20:56.817Z,18.89
2022-12-20T02:21:56.881Z,18.90
2022-12-20T02:22:56.952Z,18.91
2022-12-20T02:23:57.071Z,18.93
2022-12-20T02:24:57.129Z,18.93
2022-12-20T02:25:57.183Z,18.91
2022-12-20T02:26:57.259Z,18.89
2022-12-20T02:27:57.359Z,18.89
2022-12-20T02:28:57.436Z,18.90
2022-12-20T02:29:57.504Z,18.90
2022-12-20T02:30:57.574Z,18.90
2022-12-20T02:31:57.696Z,18.93
2022-12-20T02:32:57.749Z,18.91
2022-12-20T02:33:57.848Z,18.93
2022-12-20T02:34:57.929Z,18.91
2022-12-20T02:35:57.980Z,18.87
2022-12-20T02:36:58.069Z,18.87
2022-12-20T02:37:58.147Z,18.90
2022-12-20T02:38:58.269Z,18.91
2022-12-20T02:39:58.286Z,18.90
2022-12-20T02:40:58.370Z,18.89
2022-12-20T02:41:58.435Z,18.89
2022-12-20T02:42:58.532Z,18.86
2022-12-20T02:43:58.638Z,18.87
2022-12-20T02:44:58.703Z,18.89
2022-12-20T02:45:58.831Z,18.87
2022-12-20T02:46:58.849Z,18.84
2022-12-20T02:47:58.933Z,18.87
2022-12-20T02:48:59.028Z,18.87
2022-12-20T02:49:59.094Z,18.89
2022-12-20T02:50:59.179Z,18.86
2022-12-20T02:51:59.232Z,18.86
2022-12-20T02:52:59.295Z,18.86
2022-12-20T02:53:59.414Z,18.86
2022-12-20T02:54:59.479Z,18.89
2022-12-20T02:55:59.542Z,18.87
2022-12-20T02:56:59.609Z,18.87
2022-12-20T02:58:00.653Z,18.84
2022-12-20T02:58:59.755Z,18.84
2022-12-20T02:59:59.832Z,18.83
2022-12-20T03:00:59.937Z,18.86
2022-12-20T03:02:00.221Z,18.84
2022-12-20T03:03:00.240Z,18.82
2022-12-20T03:04:00.182Z,18.82
2022-12-20T03:05:00.237Z,18.83
2022-12-20T03:06:00.304Z,18.82
2022-12-20T03:07:00.435Z,18.78
2022-12-20T03:08:00.458Z,18.79
2022-12-20T03:09:00.550Z,18.82
2022-12-20T03:10:00.621Z,18.78
2022-12-20T03:11:00.683Z,18.79
2022-12-20T03:12:00.771Z,18.84
2022-12-20T03:13:00.827Z,18.84
2022-12-20T03:14:00.948Z,18.84
2022-12-20T03:15:00.973Z,18.86
2022-12-20T03:16:01.074Z,18.82
2022-12-20T03:17:01.239Z,18.82
2022-12-20T03:18:01.214Z,18.76
2022-12-20T03:19:01.309Z,18.79
2022-12-20T03:20:01.380Z,18.79
2022-12-20T03:21:01.450Z,18.78
2022-12-20T03:22:01.513Z,18.76
2022-12-20T03:23:01.626Z,18.75
2022-12-20T03:24:01.718Z,18.75
2022-12-20T03:25:01.791Z,18.74
2022-12-20T03:26:01.846Z,18.69
2022-12-20T03:27:01.902Z,18.71
2022-12-20T03:28:02.008Z,18.72
2022-12-20T03:29:02.099Z,18.71
2022-12-20T03:30:02.190Z,18.72
2022-12-20T03:31:02.376Z,18.72
2022-12-20T03:32:02.352Z,18.69
2022-12-20T03:33:02.438Z,18.71
2022-12-20T03:34:02.535Z,18.69
2022-12-20T03:35:02.600Z,18.69
2022-12-20T03:36:02.667Z,18.71
2022-12-20T03:37:02.738Z,18.72
2022-12-20T03:38:02.810Z,18.72
2022-12-20T03:39:02.934Z,18.68
2022-12-20T03:40:02.947Z,18.68
2022-12-20T03:41:03.016Z,18.68
2022-12-20T03:42:03.096Z,18.69
2022-12-20T03:43:03.180Z,18.71
2022-12-20T03:44:03.290Z,18.68
2022-12-20T03:45:03.331Z,18.66
2022-12-20T03:46:03.494Z,18.66
2022-12-20T03:47:03.503Z,18.64
2022-12-20T03:48:03.580Z,18.66
2022-12-20T03:49:03.677Z,18.66
2022-12-20T03:50:03.724Z,18.64
2022-12-20T03:51:03.794Z,18.65
2022-12-20T03:52:03.945Z,18.66
2022-12-20T03:53:03.966Z,18.65
2022-12-20T03:54:04.087Z,18.64
2022-12-20T03:55:04.111Z,18.65
2022-12-20T03:56:04.192Z,18.65
2022-12-20T03:57:04.263Z,18.65
2022-12-20T03:58:04.361Z,18.64
2022-12-20T03:59:04.445Z,18.64
2022-12-20T04:00:04.500Z,18.60
2022-12-20T04:01:04.642Z,18.59
2022-12-20T04:02:04.735Z,18.57
2022-12-20T04:03:04.867Z,18.62
2022-12-20T04:04:04.852Z,18.64
2022-12-20T04:05:04.914Z,18.60
2022-12-20T04:06:04.995Z,18.57
2022-12-20T04:07:05.048Z,18.64
2022-12-20T04:08:05.106Z,18.60
2022-12-20T04:09:05.192Z,18.59
2022-12-20T04:10:05.281Z,18.57
2022-12-20T04:11:05.337Z,18.59
2022-12-20T04:12:05.444Z,18.60
2022-12-20T04:13:05.502Z,18.64
2022-12-20T04:14:05.599Z,18.60
2022-12-20T04:15:05.645Z,18.64
2022-12-20T04:16:05.784Z,18.64
2022-12-20T04:17:05.800Z,18.60
2022-12-20T04:18:05.857Z,18.60
2022-12-20T04:19:05.965Z,18.60
2022-12-20T04:20:06.028Z,18.60
2022-12-20T04:21:06.090Z,18.59
2022-12-20T04:22:06.547Z,18.59
2022-12-20T04:23:06.240Z,18.54
2022-12-20T04:24:06.331Z,18.54
2022-12-20T04:25:06.394Z,18.56
2022-12-20T04:26:06.456Z,18.56
2022-12-20T04:27:06.515Z,18.62
2022-12-20T04:28:06.590Z,18.60
2022-12-20T04:29:06.674Z,18.60
2022-12-20T04:30:06.750Z,18.60
2022-12-20T04:31:06.844Z,18.62
2022-12-20T04:32:06.890Z,18.60
2022-12-20T04:33:06.985Z,18.57
2022-12-20T04:34:07.071Z,18.59
2022-12-20T04:35:07.138Z,18.59
2022-12-20T04:36:07.233Z,18.60
2022-12-20T04:37:07.293Z,18.59
2022-12-20T04:38:07.358Z,18.60
2022-12-20T04:39:07.439Z,18.64
2022-12-20T04:40:07.534Z,18.64
2022-12-20T04:41:07.586Z,18.66
2022-12-20T04:42:07.649Z,18.62
2022-12-20T04:43:07.754Z,18.60
2022-12-20T04:44:07.845Z,18.62
2022-12-20T04:45:07.910Z,18.64
2022-12-20T04:46:08.007Z,18.64
2022-12-20T04:47:08.061Z,18.64
2022-12-20T04:48:37.178Z,18.64
2022-12-20T04:49:08.237Z,18.65
2022-12-20T04:50:08.304Z,18.65
2022-12-20T04:51:08.393Z,18.66
2022-12-20T04:52:08.458Z,18.66
2022-12-20T04:53:08.531Z,18.68
2022-12-20T04:54:08.623Z,18.69
2022-12-20T04:55:08.690Z,18.72
2022-12-20T04:56:08.763Z,18.69
2022-12-20T04:57:08.836Z,18.71
2022-12-20T04:58:08.941Z,18.69
2022-12-20T04:59:09.018Z,18.69
2022-12-20T05:00:09.075Z,18.71
2022-12-20T05:01:09.171Z,18.71
2022-12-20T05:02:09.329Z,18.71
2022-12-20T05:03:09.541Z,18.69
2022-12-20T05:04:09.535Z,18.69
2022-12-20T05:05:09.512Z,18.68
2022-12-20T05:06:09.579Z,18.66
2022-12-20T05:07:09.636Z,18.65
2022-12-20T05:08:09.711Z,18.65
2022-12-20T05:09:09.796Z,18.65
2022-12-20T05:10:09.848Z,18.64
2022-12-20T05:11:09.917Z,18.65
2022-12-20T05:12:09.987Z,18.64
2022-12-20T05:13:10.055Z,18.65
2022-12-20T05:14:10.173Z,18.60
2022-12-20T05:15:10.203Z,18.64
2022-12-20T05:16:10.443Z,18.57
2022-12-20T05:17:10.356Z,18.60
2022-12-20T05:18:10.433Z,18.59
2022-12-20T05:19:10.544Z,18.59
2022-12-20T05:20:10.595Z,18.56
2022-12-20T05:21:10.670Z,18.59
2022-12-20T05:22:10.747Z,18.57
2022-12-20T05:23:10.854Z,18.57
2022-12-20T05:24:10.944Z,18.54
2022-12-20T05:25:11.020Z,18.51
2022-12-20T05:26:11.075Z,18.51
2022-12-20T05:27:11.151Z,18.53
2022-12-20T05:28:11.221Z,18.51
2022-12-20T05:29:11.318Z,18.50
2022-12-20T05:30:11.378Z,18.51
2022-12-20T05:31:11.525Z,18.53
2022-12-20T05:32:11.515Z,18.56
2022-12-20T05:33:12.893Z,18.51
2022-12-20T05:34:11.679Z,18.53
2022-12-20T05:35:11.785Z,18.51
2022-12-20T05:36:11.835Z,18.53
2022-12-20T05:37:11.897Z,18.53
2022-12-20T05:38:11.961Z,18.53
2022-12-20T05:39:12.056Z,18.51
2022-12-20T05:40:12.115Z,18.51
2022-12-20T05:41:12.217Z,18.53
2022-12-20T05:42:12.287Z,18.50
2022-12-20T05:43:12.360Z,18.47
2022-12-20T05:44:12.496Z,18.49
2022-12-20T05:45:12.524Z,18.50
2022-12-20T05:46:12.703Z,18.50
2022-12-20T05:47:12.788Z,18.50
2022-12-20T05:48:12.784Z,18.50
2022-12-20T05:49:12.892Z,18.50
2022-12-20T05:50:18.692Z,18.51
2022-12-20T05:51:13.025Z,18.49
2022-12-20T05:52:13.082Z,18.49
2022-12-20T05:53:13.147Z,18.50
2022-12-20T05:54:13.242Z,18.49
2022-12-20T05:55:13.308Z,18.49
2022-12-20T05:56:13.384Z,18.50
2022-12-20T05:57:13.444Z,18.50
2022-12-20T05:58:13.519Z,18.50
2022-12-20T05:59:13.635Z,18.50
2022-12-20T06:00:13.702Z,18.47
2022-12-20T06:01:13.751Z,18.47
2022-12-20T06:02:13.918Z,18.47
2022-12-20T06:03:14.053Z,18.46
2022-12-20T06:04:14.086Z,18.49
2022-12-20T06:05:14.077Z,18.47
2022-12-20T06:06:15.438Z,18.46
2022-12-20T06:07:14.229Z,18.47
2022-12-20T06:08:14.300Z,18.50
2022-12-20T06:09:14.406Z,18.47
2022-12-20T06:10:14.505Z,18.44
2022-12-20T06:11:14.561Z,18.42
2022-12-20T06:12:14.629Z,18.46
2022-12-20T06:13:14.704Z,18.47
2022-12-20T06:14:14.807Z,18.46
2022-12-20T06:15:14.850Z,18.47
2022-12-20T06:16:14.976Z,18.49
2022-12-20T06:17:15.028Z,18.47
2022-12-20T06:18:15.092Z,18.47
2022-12-20T06:19:21.138Z,18.46
2022-12-20T06:20:15.244Z,18.44
2022-12-20T06:21:15.303Z,18.42
2022-12-20T06:22:15.397Z,18.44
2022-12-20T06:23:15.489Z,18.42
2022-12-20T06:24:15.580Z,18.46
2022-12-20T06:25:15.670Z,18.46
2022-12-20T06:26:15.699Z,18.42
2022-12-20T06:27:15.766Z,18.46
2022-12-20T06:28:15.829Z,18.42
2022-12-20T06:29:15.939Z,18.46
2022-12-20T06:30:16.003Z,18.47
2022-12-20T06:31:16.288Z,18.44
2022-12-20T06:32:16.168Z,18.44
2022-12-20T06:33:16.231Z,18.41
2022-12-20T06:34:16.332Z,18.42
2022-12-20T06:35:16.412Z,18.44
2022-12-20T06:36:16.466Z,18.41
2022-12-20T06:37:16.533Z,18.41
2022-12-20T06:38:16.609Z,18.42
2022-12-20T06:39:16.693Z,18.42
2022-12-20T06:40:16.768Z,18.44
2022-12-20T06:41:16.865Z,18.44
2022-12-20T06:42:16.932Z,18.42
2022-12-20T06:43:16.997Z,18.44
2022-12-20T06:44:17.081Z,18.44
2022-12-20T06:45:17.148Z,18.42
2022-12-20T06:46:17.308Z,18.42
2022-12-20T06:47:17.284Z,18.42
2022-12-20T06:48:17.372Z,18.44
2022-12-20T06:49:17.476Z,18.44
2022-12-20T06:50:17.517Z,18.44
2022-12-20T06:51:17.583Z,18.41
2022-12-20T06:52:17.655Z,18.42
2022-12-20T06:53:17.720Z,18.39
2022-12-20T06:54:17.918Z,18.41
2022-12-20T06:55:17.868Z,18.41
2022-12-20T06:56:17.957Z,18.44
2022-12-20T06:57:18.035Z,18.46
2022-12-20T06:58:18.100Z,18.49
2022-12-20T06:59:18.188Z,18.49
2022-12-20T07:00:18.262Z,18.46
2022-12-20T07:01:18.364Z,18.47
2022-12-20T07:02:18.684Z,18.46
2022-12-20T07:03:18.705Z,18.46
2022-12-20T07:04:18.617Z,18.44
2022-12-20T07:05:18.702Z,18.46
2022-12-20T07:06:18.771Z,18.44
2022-12-20T07:07:18.839Z,18.42
2022-12-20T07:08:18.901Z,18.46
2022-12-20T07:09:18.995Z,18.49
2022-12-20T07:10:19.083Z,18.46
2022-12-20T07:11:19.139Z,18.44
2022-12-20T07:12:19.214Z,18.44
2022-12-20T07:13:19.279Z,18.44
2022-12-20T07:14:19.415Z,18.46
2022-12-20T07:15:19.481Z,18.44
2022-12-20T07:16:19.659Z,18.42
2022-12-20T07:17:19.623Z,18.42
2022-12-20T07:18:19.707Z,18.41
2022-12-20T07:19:19.830Z,18.44
2022-12-20T07:20:19.908Z,18.44
2022-12-20T07:21:20.027Z,18.41
2022-12-20T07:22:20.037Z,18.41
2022-12-20T07:23:20.135Z,18.39
2022-12-20T07:24:20.276Z,18.41
2022-12-20T07:25:20.299Z,18.42
2022-12-20T07:26:20.371Z,18.39
2022-12-20T07:27:20.442Z,18.41
2022-12-20T07:28:20.512Z,18.41
2022-12-20T07:29:20.602Z,18.42
2022-12-20T07:30:20.641Z,18.41
2022-12-20T07:31:20.811Z,18.39
2022-12-20T07:32:20.896Z,18.41
2022-12-20T07:33:20.927Z,18.41
2022-12-20T07:34:21.023Z,18.42
2022-12-20T07:35:21.115Z,18.42
2022-12-20T07:36:21.175Z,18.44
2022-12-20T07:37:21.246Z,18.46
2022-12-20T07:38:21.350Z,18.41
2022-12-20T07:39:21.432Z,18.41
2022-12-20T07:40:21.496Z,18.41
2022-12-20T07:41:21.569Z,18.39
2022-12-20T07:42:21.663Z,18.42
2022-12-20T07:43:21.745Z,18.41
2022-12-20T07:44:21.845Z,18.39
2022-12-20T07:45:21.925Z,18.41
2022-12-20T07:46:22.190Z,18.42
2022-12-20T07:47:22.099Z,18.41
2022-12-20T07:48:22.320Z,18.39
2022-12-20T07:49:22.332Z,18.39
2022-12-20T07:50:22.315Z,18.42
2022-12-20T07:51:22.384Z,18.41
2022-12-20T07:52:22.459Z,18.39
2022-12-20T07:53:22.560Z,18.39
2022-12-20T07:54:22.634Z,18.41
2022-12-20T07:55:22.690Z,18.38
2022-12-20T07:56:22.770Z,18.39
2022-12-20T07:57:22.846Z,18.39
2022-12-20T07:58:22.919Z,18.44
2022-12-20T07:59:23.040Z,18.44
2022-12-20T08:00:23.089Z,18.41
2022-12-20T08:01:23.334Z,18.42
2022-12-20T08:02:23.489Z,18.41
2022-12-20T08:03:23.494Z,18.42
2022-12-20T08:04:23.380Z,18.44
2022-12-20T08:05:23.455Z,18.44
2022-12-20T08:06:23.530Z,18.44
2022-12-20T08:07:23.628Z,18.42
2022-12-20T08:08:23.732Z,18.46
2022-12-20T08:09:23.793Z,18.53
2022-12-20T08:10:23.883Z,18.56
2022-12-20T08:11:23.933Z,18.57
2022-12-20T08:12:24.023Z,18.60
2022-12-20T08:13:24.107Z,18.60
2022-12-20T08:14:24.193Z,18.60
2022-12-20T08:15:24.293Z,18.65
2022-12-20T08:16:24.400Z,18.65
2022-12-20T08:17:24.414Z,18.62
2022-12-20T08:18:24.495Z,18.66
2022-12-20T08:19:31.797Z,18.69
2022-12-20T08:20:24.685Z,18.72
2022-12-20T08:21:24.757Z,18.76
2022-12-20T08:22:24.826Z,18.84
2022-12-20T08:23:24.916Z,18.89
2022-12-20T08:24:25.004Z,18.94
2022-12-20T08:25:25.092Z,19.02
2022-12-20T08:26:25.161Z,19.05
2022-12-20T08:27:25.235Z,19.09
2022-12-20T08:28:25.315Z,19.10
2022-12-20T08:29:25.364Z,19.12
2022-12-20T08:30:25.549Z,19.13
2022-12-20T08:31:25.678Z,19.15
2022-12-20T08:32:25.642Z,19.16
2022-12-20T08:33:25.738Z,19.16
2022-12-20T08:34:25.806Z,19.20
2022-12-20T08:35:25.886Z,19.27
2022-12-20T08:36:25.965Z,19.28
2022-12-20T08:37:26.046Z,19.25
2022-12-20T08:38:26.119Z,19.25
2022-12-20T08:39:26.187Z,19.28
2022-12-20T08:40:26.301Z,19.31
2022-12-20T08:41:26.359Z,19.34
2022-12-20T08:42:26.404Z,19.39
2022-12-20T08:43:26.496Z,19.35
2022-12-20T08:44:26.585Z,19.39
2022-12-20T08:45:26.666Z,19.38
2022-12-20T08:46:26.875Z,19.35
2022-12-20T08:47:26.812Z,19.35
2022-12-20T08:48:26.869Z,19.38
2022-12-20T08:49:26.975Z,19.43
2022-12-20T08:50:27.051Z,19.49
2022-12-20T08:51:27.293Z,19.52
2022-12-20T08:52:27.201Z,19.50
2022-12-20T08:53:27.267Z,19.49
2022-12-20T08:54:27.388Z,19.49
2022-12-20T08:55:29.386Z,19.47
2022-12-20T08:56:27.538Z,19.52
2022-12-20T08:57:27.598Z,19.52
2022-12-20T08:58:27.665Z,19.57
2022-12-20T08:59:27.734Z,19.64
2022-12-20T09:00:27.818Z,19.64
2022-12-20T09:01:27.989Z,19.67
2022-12-20T09:02:28.142Z,19.67
2022-12-20T09:03:28.123Z,19.71
2022-12-20T09:04:28.118Z,19.79
2022-12-20T09:05:28.213Z,19.85
2022-12-20T09:06:28.286Z,19.89
2022-12-20T09:07:28.382Z,19.94
2022-12-20T09:08:28.435Z,19.92
2022-12-20T09:09:28.524Z,19.89
2022-12-20T09:10:28.609Z,19.82
2022-12-20T09:11:28.667Z,19.83
2022-12-20T09:12:28.753Z,19.82
2022-12-20T09:13:28.835Z,19.80
2022-12-20T09:14:28.903Z,19.83
2022-12-20T09:15:29.038Z,19.89
2022-12-20T09:16:29.120Z,19.82
2022-12-20T09:17:29.128Z,19.82
2022-12-20T09:18:29.194Z,19.82
2022-12-20T09:19:29.266Z,19.83
2022-12-20T09:20:29.378Z,19.83
2022-12-20T09:21:29.457Z,19.82
2022-12-20T09:22:29.528Z,19.83
2022-12-20T09:23:29.603Z,19.80
2022-12-20T09:24:30.114Z,19.83
2022-12-20T09:25:30.241Z,19.87
2022-12-20T09:26:30.263Z,19.87
2022-12-20T09:27:30.336Z,19.90
2022-12-20T09:28:30.451Z,19.92
2022-12-20T09:29:35.474Z,19.90
2022-12-20T09:30:30.561Z,19.94
2022-12-20T09:31:30.785Z,20.00
2022-12-20T09:32:30.748Z,20.10
2022-12-20T09:33:30.771Z,20.15
2022-12-20T09:34:30.935Z,20.10
2022-12-20T09:35:30.999Z,20.10
2022-12-20T09:36:31.101Z,20.08
2022-12-20T09:37:31.179Z,20.05
2022-12-20T09:38:31.236Z,20.01
2022-12-20T09:39:31.320Z,19.97
2022-12-20T09:40:31.420Z,19.94
2022-12-20T09:41:31.525Z,19.95
2022-12-20T09:42:31.599Z,19.92
2022-12-20T09:43:31.678Z,19.92
2022-12-20T09:44:31.326Z,19.92
2022-12-20T09:45:31.399Z,19.90
2022-12-20T09:46:31.548Z,19.94
2022-12-20T09:47:31.548Z,19.98
2022-12-20T09:48:31.612Z,20.01
2022-12-20T09:49:31.681Z,20.07
2022-12-20T09:50:31.755Z,19.97
2022-12-20T09:51:31.838Z,19.64
2022-12-20T09:52:31.936Z,19.40
2022-12-20T09:53:32.035Z,19.25
2022-12-20T09:54:32.119Z,19.16
2022-12-20T09:55:32.186Z,19.10
2022-12-20T09:59:50.456Z,18.83
2022-12-20T10:00:54.381Z,18.86
2022-12-20T10:01:51.682Z,18.87
2022-12-20T10:03:08.291Z,18.86
2022-12-20T10:03:52.008Z,18.83
2022-12-20T10:04:52.065Z,18.86
2022-12-20T10:05:52.131Z,18.84
2022-12-20T10:06:52.031Z,18.86
2022-12-20T10:07:52.105Z,18.86
2022-12-20T10:08:52.167Z,18.84
2022-12-20T10:09:52.244Z,18.87
2022-12-20T10:10:52.360Z,18.89
2022-12-20T10:11:52.417Z,18.89
2022-12-20T10:12:52.483Z,18.87
2022-12-20T10:13:52.638Z,18.86
2022-12-20T10:14:52.671Z,18.86
2022-12-20T10:15:52.818Z,18.83
2022-12-20T10:16:52.909Z,18.79
2022-12-20T10:17:52.924Z,18.76
2022-12-20T10:18:53.043Z,18.78
2022-12-20T10:19:53.849Z,18.78
2022-12-20T10:20:53.216Z,18.76
2022-12-20T10:21:53.293Z,18.74
2022-12-20T10:22:53.340Z,18.71
2022-12-20T10:23:53.414Z,18.71
2022-12-20T10:24:53.500Z,18.69
2022-12-20T10:25:53.606Z,18.76
2022-12-20T10:26:53.665Z,18.75
2022-12-20T10:27:53.743Z,18.74
2022-12-20T10:28:54.714Z,18.72
2022-12-20T10:29:53.922Z,18.74
2022-12-20T10:30:54.068Z,18.74
2022-12-20T10:31:54.126Z,18.71
2022-12-20T10:32:54.162Z,18.71
2022-12-20T10:33:54.323Z,18.69
2022-12-20T10:34:54.315Z,18.71
2022-12-20T10:35:54.432Z,18.71
2022-12-20T10:36:54.498Z,18.68
2022-12-20T10:38:07.082Z,18.68
2022-12-20T10:38:54.693Z,18.66
2022-12-20T10:39:54.755Z,18.69
2022-12-20T10:41:20.144Z,18.66
2022-12-20T10:41:54.899Z,18.64
2022-12-20T10:42:54.967Z,18.64
2022-12-20T10:43:55.054Z,18.64
2022-12-20T10:44:55.146Z,18.59
2022-12-20T10:45:55.261Z,18.50
2022-12-20T10:46:55.476Z,18.47
2022-12-20T10:47:55.378Z,18.44
2022-12-20T10:48:55.472Z,18.36
2022-12-20T10:49:55.557Z,18.39
2022-12-20T10:50:55.775Z,18.38
2022-12-20T10:51:55.726Z,18.41
2022-12-20T10:52:55.770Z,18.39
2022-12-20T10:53:55.945Z,18.36
2022-12-20T10:54:55.978Z,18.35
2022-12-20T10:55:56.028Z,18.35
2022-12-20T10:56:56.166Z,18.39
2022-12-20T10:57:56.165Z,18.42
2022-12-20T10:58:56.246Z,18.44
2022-12-20T10:59:56.330Z,18.41
2022-12-20T11:00:56.411Z,18.38
2022-12-20T11:01:56.575Z,18.41
2022-12-20T11:02:56.881Z,18.41
2022-12-20T11:03:56.736Z,18.39
2022-12-20T11:04:56.749Z,18.38
2022-12-20T11:05:56.763Z,18.39
2022-12-20T11:06:56.845Z,18.36
2022-12-20T11:09:00.779Z,18.39
2022-12-20T11:09:57.079Z,18.38
2022-12-20T11:10:57.171Z,18.41
2022-12-20T11:11:57.287Z,18.42
2022-12-20T11:12:57.359Z,18.44
2022-12-20T11:13:57.430Z,18.50
2022-12-20T11:14:57.506Z,18.54
2022-12-20T11:15:58.002Z,18.57
2022-12-20T11:16:57.642Z,18.64
2022-12-20T11:17:58.731Z,18.65
2022-12-20T11:18:57.798Z,18.68
2022-12-20T11:19:57.893Z,18.66
2022-12-20T11:20:57.956Z,18.66
2022-12-20T11:21:58.090Z,18.66
2022-12-20T11:22:58.123Z,18.69
2022-12-20T11:23:58.217Z,18.69
2022-12-20T11:24:58.321Z,18.69
2022-12-20T11:25:58.386Z,18.71
2022-12-20T11:26:58.428Z,18.71
2022-12-20T11:27:58.691Z,18.72
2022-12-20T11:28:58.595Z,18.75
2022-12-20T11:29:58.665Z,18.82
2022-12-20T11:30:58.832Z,18.83
2022-12-20T11:31:58.925Z,18.87
2022-12-20T11:32:58.913Z,18.91
2022-12-20T11:33:58.985Z,18.96
2022-12-20T11:34:59.068Z,18.99
2022-12-20T11:35:59.141Z,18.91
2022-12-20T11:36:59.274Z,18.90
